sensor_id;sensor_type;location;lat;lon;timestamp;P1;P2;P0
71794;PMS7003;59641;45.188;5.712;2024-02-28T00:01:52;16.50;15.00;12.00
71794;PMS7003;59641;45.188;5.712;2024-02-28T00:04:18;20.75;20.25;13.25
71794;PMS7003;59641;45.188;5.712;2024-02-28T00:06:44;17.50;17.25;14.00
71794;PMS7003;59641;45.188;5.712;2024-02-28T00:09:11;18.75;17.75;13.00
71794;PMS7003;59641;45.188;5.712;2024-02-28T00:11:45;23.25;21.00;15.25
71794;PMS7003;59641;45.188;5.712;2024-02-28T00:14:11;22.25;19.00;14.75
71794;PMS7003;59641;45.188;5.712;2024-02-28T00:16:49;17.50;16.00;11.75
71794;PMS7003;59641;45.188;5.712;2024-02-28T00:19:15;22.00;18.25;14.00
71794;PMS7003;59641;45.188;5.712;2024-02-28T00:21:42;21.00;17.50;12.75
71794;PMS7003;59641;45.188;5.712;2024-02-28T00:24:07;18.25;16.50;12.25
71794;PMS7003;59641;45.188;5.712;2024-02-28T00:26:33;19.00;19.00;14.00
71794;PMS7003;59641;45.188;5.712;2024-02-28T00:28:58;22.00;18.25;13.25
71794;PMS7003;59641;45.188;5.712;2024-02-28T00:31:24;20.25;16.75;13.00
71794;PMS7003;59641;45.188;5.712;2024-02-28T00:33:50;18.33;18.33;14.00
71794;PMS7003;59641;45.188;5.712;2024-02-28T00:36:15;16.00;15.25;11.00
71794;PMS7003;59641;45.188;5.712;2024-02-28T00:38:41;20.33;19.33;14.00
71794;PMS7003;59641;45.188;5.712;2024-02-28T00:41:06;22.33;19.00;14.00
71794;PMS7003;59641;45.188;5.712;2024-02-28T00:43:32;17.00;16.50;12.25
71794;PMS7003;59641;45.188;5.712;2024-02-28T00:45:57;18.50;18.00;14.50
71794;PMS7003;59641;45.188;5.712;2024-02-28T00:48:23;22.25;21.75;13.00
71794;PMS7003;59641;45.188;5.712;2024-02-28T00:50:49;17.75;17.00;12.00
71794;PMS7003;59641;45.188;5.712;2024-02-28T00:53:14;18.75;18.75;13.25
71794;PMS7003;59641;45.188;5.712;2024-02-28T00:55:40;18.00;17.00;12.75
71794;PMS7003;59641;45.188;5.712;2024-02-28T00:58:05;26.00;22.33;14.67
71794;PMS7003;59641;45.188;5.712;2024-02-28T01:00:30;20.33;18.33;13.33
71794;PMS7003;59641;45.188;5.712;2024-02-28T01:02:55;22.33;22.33;14.67
71794;PMS7003;59641;45.188;5.712;2024-02-28T01:05:21;25.67;22.67;16.00
71794;PMS7003;59641;45.188;5.712;2024-02-28T01:07:46;25.33;21.33;16.00
71794;PMS7003;59641;45.188;5.712;2024-02-28T01:10:11;25.00;24.50;16.00
71794;PMS7003;59641;45.188;5.712;2024-02-28T01:12:37;23.00;20.75;15.75
71794;PMS7003;59641;45.188;5.712;2024-02-28T01:15:02;22.00;18.50;14.00
71794;PMS7003;59641;45.188;5.712;2024-02-28T01:17:28;21.25;21.25;14.25
71794;PMS7003;59641;45.188;5.712;2024-02-28T01:19:53;26.25;20.00;14.75
71794;PMS7003;59641;45.188;5.712;2024-02-28T01:22:19;21.67;21.67;16.00
71794;PMS7003;59641;45.188;5.712;2024-02-28T01:24:44;25.67;25.00;16.33
71794;PMS7003;59641;45.188;5.712;2024-02-28T01:27:09;18.67;18.33;14.00
71794;PMS7003;59641;45.188;5.712;2024-02-28T01:29:35;19.25;19.25;13.00
71794;PMS7003;59641;45.188;5.712;2024-02-28T01:32:00;22.50;21.50;15.00
71794;PMS7003;59641;45.188;5.712;2024-02-28T01:34:26;27.00;26.00;15.67
71794;PMS7003;59641;45.188;5.712;2024-02-28T01:36:51;21.75;18.25;13.50
71794;PMS7003;59641;45.188;5.712;2024-02-28T01:39:17;27.00;25.67;16.33
71794;PMS7003;59641;45.188;5.712;2024-02-28T01:41:49;22.67;20.67;15.33
71794;PMS7003;59641;45.188;5.712;2024-02-28T01:44:18;24.33;24.00;15.67
71794;PMS7003;59641;45.188;5.712;2024-02-28T01:46:43;24.50;22.75;15.25
71794;PMS7003;59641;45.188;5.712;2024-02-28T01:49:09;28.00;24.75;17.00
71794;PMS7003;59641;45.188;5.712;2024-02-28T01:51:35;29.33;25.67;17.00
71794;PMS7003;59641;45.188;5.712;2024-02-28T01:54:00;22.00;22.00;15.00
71794;PMS7003;59641;45.188;5.712;2024-02-28T01:56:26;21.00;20.00;15.00
71794;PMS7003;59641;45.188;5.712;2024-02-28T01:58:52;24.33;24.33;16.00
71794;PMS7003;59641;45.188;5.712;2024-02-28T02:01:19;21.75;21.75;16.00
71794;PMS7003;59641;45.188;5.712;2024-02-28T02:03:44;22.00;20.25;14.00
71794;PMS7003;59641;45.188;5.712;2024-02-28T02:06:09;22.00;21.25;15.00
71794;PMS7003;59641;45.188;5.712;2024-02-28T02:08:36;18.00;17.25;12.00
71794;PMS7003;59641;45.188;5.712;2024-02-28T02:11:02;21.67;21.67;14.00
71794;PMS7003;59641;45.188;5.712;2024-02-28T02:13:27;25.25;22.50;16.00
71794;PMS7003;59641;45.188;5.712;2024-02-28T02:15:53;20.75;20.75;13.75
71794;PMS7003;59641;45.188;5.712;2024-02-28T02:18:18;22.33;21.33;15.67
71794;PMS7003;59641;45.188;5.712;2024-02-28T02:20:43;28.33;24.33;17.33
71794;PMS7003;59641;45.188;5.712;2024-02-28T02:23:14;27.00;23.67;16.67
71794;PMS7003;59641;45.188;5.712;2024-02-28T02:25:45;26.00;23.00;16.00
71794;PMS7003;59641;45.188;5.712;2024-02-28T02:28:11;25.67;24.67;17.00
71794;PMS7003;59641;45.188;5.712;2024-02-28T02:30:37;24.33;21.00;14.67
71794;PMS7003;59641;45.188;5.712;2024-02-28T02:33:04;23.50;22.25;16.25
71794;PMS7003;59641;45.188;5.712;2024-02-28T02:35:29;22.33;21.00;14.67
71794;PMS7003;59641;45.188;5.712;2024-02-28T02:37:55;23.67;23.67;17.00
71794;PMS7003;59641;45.188;5.712;2024-02-28T02:40:20;24.00;21.33;15.67
71794;PMS7003;59641;45.188;5.712;2024-02-28T02:42:45;24.00;20.67;13.00
71794;PMS7003;59641;45.188;5.712;2024-02-28T02:45:10;25.67;21.00;14.00
71794;PMS7003;59641;45.188;5.712;2024-02-28T02:47:36;30.67;26.00;17.67
71794;PMS7003;59641;45.188;5.712;2024-02-28T02:50:01;25.00;21.00;15.33
71794;PMS7003;59641;45.188;5.712;2024-02-28T02:52:27;18.00;17.00;13.00
71794;PMS7003;59641;45.188;5.712;2024-02-28T02:54:52;20.00;16.00;10.00
71794;PMS7003;59641;45.188;5.712;2024-02-28T02:57:17;24.33;24.33;17.00
71794;PMS7003;59641;45.188;5.712;2024-02-28T02:59:43;29.67;26.67;17.67
71794;PMS7003;59641;45.188;5.712;2024-02-28T03:02:08;26.33;25.00;16.00
71794;PMS7003;59641;45.188;5.712;2024-02-28T03:04:33;31.67;26.00;15.67
71794;PMS7003;59641;45.188;5.712;2024-02-28T03:06:59;30.33;24.67;14.00
71794;PMS7003;59641;45.188;5.712;2024-02-28T03:09:24;24.00;24.00;14.00
71794;PMS7003;59641;45.188;5.712;2024-02-28T03:11:49;22.67;22.00;16.67
71794;PMS7003;59641;45.188;5.712;2024-02-28T03:14:15;23.50;21.00;15.00
71794;PMS7003;59641;45.188;5.712;2024-02-28T03:16:41;22.00;22.00;15.25
71794;PMS7003;59641;45.188;5.712;2024-02-28T03:19:07;23.50;20.50;14.25
71794;PMS7003;59641;45.188;5.712;2024-02-28T03:21:32;22.75;21.75;14.75
71794;PMS7003;59641;45.188;5.712;2024-02-28T03:23:58;26.67;23.33;17.00
71794;PMS7003;59641;45.188;5.712;2024-02-28T03:26:23;28.00;24.50;16.25
71794;PMS7003;59641;45.188;5.712;2024-02-28T03:28:48;22.00;18.75;12.25
71794;PMS7003;59641;45.188;5.712;2024-02-28T03:31:14;23.00;22.00;15.33
71794;PMS7003;59641;45.188;5.712;2024-02-28T03:33:39;22.00;19.67;13.67
71794;PMS7003;59641;45.188;5.712;2024-02-28T03:36:04;21.33;21.33;15.33
71794;PMS7003;59641;45.188;5.712;2024-02-28T03:38:30;24.33;22.00;16.00
71794;PMS7003;59641;45.188;5.712;2024-02-28T03:40:55;22.25;20.25;16.50
71794;PMS7003;59641;45.188;5.712;2024-02-28T03:43:21;26.33;24.33;16.00
71794;PMS7003;59641;45.188;5.712;2024-02-28T03:45:46;27.00;23.67;16.00
71794;PMS7003;59641;45.188;5.712;2024-02-28T03:48:11;24.67;23.67;17.00
71794;PMS7003;59641;45.188;5.712;2024-02-28T03:50:37;19.00;17.50;14.75
71794;PMS7003;59641;45.188;5.712;2024-02-28T03:53:02;23.67;22.67;15.33
71794;PMS7003;59641;45.188;5.712;2024-02-28T03:55:28;26.00;23.50;16.75
71794;PMS7003;59641;45.188;5.712;2024-02-28T03:57:54;23.25;22.50;14.25
71794;PMS7003;59641;45.188;5.712;2024-02-28T04:00:19;25.33;24.00;15.33
71794;PMS7003;59641;45.188;5.712;2024-02-28T04:02:44;22.00;20.33;11.33
71794;PMS7003;59641;45.188;5.712;2024-02-28T04:05:10;25.00;22.00;16.50
71794;PMS7003;59641;45.188;5.712;2024-02-28T04:07:35;28.25;23.75;16.00
71794;PMS7003;59641;45.188;5.712;2024-02-28T04:10:01;23.25;22.00;15.00
71794;PMS7003;59641;45.188;5.712;2024-02-28T04:12:26;27.25;23.50;15.25
71794;PMS7003;59641;45.188;5.712;2024-02-28T04:14:51;20.25;17.00;14.00
71794;PMS7003;59641;45.188;5.712;2024-02-28T04:17:17;23.00;20.33;14.00
71794;PMS7003;59641;45.188;5.712;2024-02-28T04:19:42;27.33;22.67;15.00
71794;PMS7003;59641;45.188;5.712;2024-02-28T04:22:07;23.33;23.00;15.00
71794;PMS7003;59641;45.188;5.712;2024-02-28T04:24:33;23.00;22.00;15.00
71794;PMS7003;59641;45.188;5.712;2024-02-28T04:26:58;23.00;21.00;15.00
71794;PMS7003;59641;45.188;5.712;2024-02-28T04:29:24;25.75;23.25;12.75
71794;PMS7003;59641;45.188;5.712;2024-02-28T04:31:50;27.25;25.25;16.50
71794;PMS7003;59641;45.188;5.712;2024-02-28T04:34:15;21.00;19.50;15.50
71794;PMS7003;59641;45.188;5.712;2024-02-28T04:36:41;25.67;25.33;16.00
71794;PMS7003;59641;45.188;5.712;2024-02-28T04:39:06;25.67;22.00;14.33
71794;PMS7003;59641;45.188;5.712;2024-02-28T04:41:32;27.33;24.33;17.33
71794;PMS7003;59641;45.188;5.712;2024-02-28T04:43:58;23.67;22.67;14.67
71794;PMS7003;59641;45.188;5.712;2024-02-28T04:46:24;26.67;23.67;16.00
71794;PMS7003;59641;45.188;5.712;2024-02-28T04:48:49;27.00;21.00;13.00
71794;PMS7003;59641;45.188;5.712;2024-02-28T04:51:15;31.67;26.00;16.33
71794;PMS7003;59641;45.188;5.712;2024-02-28T04:53:44;22.00;20.67;11.33
71794;PMS7003;59641;45.188;5.712;2024-02-28T04:56:09;20.00;19.33;12.33
71794;PMS7003;59641;45.188;5.712;2024-02-28T04:58:35;25.67;24.33;16.33
71794;PMS7003;59641;45.188;5.712;2024-02-28T05:01:01;29.67;27.33;16.00
71794;PMS7003;59641;45.188;5.712;2024-02-28T05:03:26;31.67;26.67;17.00
71794;PMS7003;59641;45.188;5.712;2024-02-28T05:05:51;28.33;25.33;15.00
71794;PMS7003;59641;45.188;5.712;2024-02-28T05:08:19;23.00;22.00;16.33
71794;PMS7003;59641;45.188;5.712;2024-02-28T05:10:45;21.33;21.00;13.00
71794;PMS7003;59641;45.188;5.712;2024-02-28T05:13:10;23.33;21.33;15.33
71794;PMS7003;59641;45.188;5.712;2024-02-28T05:15:35;21.50;21.50;13.75
71794;PMS7003;59641;45.188;5.712;2024-02-28T05:18:00;24.00;20.25;14.25
71794;PMS7003;59641;45.188;5.712;2024-02-28T05:20:26;23.25;22.00;16.50
71794;PMS7003;59641;45.188;5.712;2024-02-28T05:22:51;19.00;19.00;12.25
71794;PMS7003;59641;45.188;5.712;2024-02-28T05:25:17;22.00;18.67;16.00
71794;PMS7003;59641;45.188;5.712;2024-02-28T05:27:42;27.50;27.00;16.25
71794;PMS7003;59641;45.188;5.712;2024-02-28T05:30:07;25.25;21.75;15.75
71794;PMS7003;59641;45.188;5.712;2024-02-28T05:32:33;27.33;24.00;16.67
71794;PMS7003;59641;45.188;5.712;2024-02-28T05:34:58;30.67;28.33;17.00
71794;PMS7003;59641;45.188;5.712;2024-02-28T05:37:24;23.00;23.00;15.67
71794;PMS7003;59641;45.188;5.712;2024-02-28T05:39:50;24.25;24.00;16.50
71794;PMS7003;59641;45.188;5.712;2024-02-28T05:42:15;23.00;23.00;15.67
71794;PMS7003;59641;45.188;5.712;2024-02-28T05:44:46;27.33;24.33;18.67
71794;PMS7003;59641;45.188;5.712;2024-02-28T05:47:14;30.00;24.33;18.00
71794;PMS7003;59641;45.188;5.712;2024-02-28T05:49:40;36.67;30.00;18.00
71794;PMS7003;59641;45.188;5.712;2024-02-28T05:52:05;31.33;29.67;19.33
71794;PMS7003;59641;45.188;5.712;2024-02-28T05:54:30;27.67;26.67;17.00
71794;PMS7003;59641;45.188;5.712;2024-02-28T05:56:56;30.67;29.67;19.00
71794;PMS7003;59641;45.188;5.712;2024-02-28T05:59:21;33.67;28.00;19.33
71794;PMS7003;59641;45.188;5.712;2024-02-28T06:01:47;27.67;24.67;18.00
71794;PMS7003;59641;45.188;5.712;2024-02-28T06:04:12;31.00;28.00;18.67
71794;PMS7003;59641;45.188;5.712;2024-02-28T06:06:38;29.00;28.00;19.33
71794;PMS7003;59641;45.188;5.712;2024-02-28T06:09:03;31.67;28.00;19.00
71794;PMS7003;59641;45.188;5.712;2024-02-28T06:11:28;30.25;25.75;17.25
71794;PMS7003;59641;45.188;5.712;2024-02-28T06:13:54;31.00;30.00;18.33
71794;PMS7003;59641;45.188;5.712;2024-02-28T06:16:19;34.00;30.33;19.33
71794;PMS7003;59641;45.188;5.712;2024-02-28T06:18:44;28.67;28.33;19.00
71794;PMS7003;59641;45.188;5.712;2024-02-28T06:21:10;36.67;32.00;19.67
71794;PMS7003;59641;45.188;5.712;2024-02-28T06:23:35;37.33;31.33;19.00
71794;PMS7003;59641;45.188;5.712;2024-02-28T06:26:01;27.00;26.33;17.67
71794;PMS7003;59641;45.188;5.712;2024-02-28T06:28:26;37.67;33.00;19.00
71794;PMS7003;59641;45.188;5.712;2024-02-28T06:30:51;32.33;29.33;18.00
71794;PMS7003;59641;45.188;5.712;2024-02-28T06:33:17;30.33;26.67;17.00
71794;PMS7003;59641;45.188;5.712;2024-02-28T06:35:43;26.67;26.33;16.33
71794;PMS7003;59641;45.188;5.712;2024-02-28T06:38:08;33.75;26.50;18.00
71794;PMS7003;59641;45.188;5.712;2024-02-28T06:40:34;33.50;28.25;17.50
71794;PMS7003;59641;45.188;5.712;2024-02-28T06:43:00;32.50;27.75;16.00
71794;PMS7003;59641;45.188;5.712;2024-02-28T06:45:26;23.25;23.25;16.00
71794;PMS7003;59641;45.188;5.712;2024-02-28T06:47:51;33.33;28.33;18.33
71794;PMS7003;59641;45.188;5.712;2024-02-28T06:50:16;33.33;30.67;18.00
71794;PMS7003;59641;45.188;5.712;2024-02-28T06:52:42;28.33;24.00;16.67
71794;PMS7003;59641;45.188;5.712;2024-02-28T06:55:08;25.50;24.25;17.00
71794;PMS7003;59641;45.188;5.712;2024-02-28T06:57:37;25.00;23.33;17.00
71794;PMS7003;59641;45.188;5.712;2024-02-28T07:00:04;37.67;32.67;19.33
71794;PMS7003;59641;45.188;5.712;2024-02-28T07:02:43;32.00;28.67;20.00
71794;PMS7003;59641;45.188;5.712;2024-02-28T07:05:10;32.67;26.67;18.00
71794;PMS7003;59641;45.188;5.712;2024-02-28T07:07:35;33.33;30.00;18.67
71794;PMS7003;59641;45.188;5.712;2024-02-28T07:10:04;29.67;26.33;18.00
71794;PMS7003;59641;45.188;5.712;2024-02-28T07:12:30;28.00;28.00;18.00
71794;PMS7003;59641;45.188;5.712;2024-02-28T07:14:55;29.00;28.00;17.00
71794;PMS7003;59641;45.188;5.712;2024-02-28T07:17:20;32.67;28.33;18.33
71794;PMS7003;59641;45.188;5.712;2024-02-28T07:19:46;28.00;26.33;16.33
71794;PMS7003;59641;45.188;5.712;2024-02-28T07:22:11;29.67;26.33;16.67
71794;PMS7003;59641;45.188;5.712;2024-02-28T07:24:36;30.33;27.00;18.33
71794;PMS7003;59641;45.188;5.712;2024-02-28T07:27:02;25.33;23.33;17.33
71794;PMS7003;59641;45.188;5.712;2024-02-28T07:29:27;29.67;25.00;16.00
71794;PMS7003;59641;45.188;5.712;2024-02-28T07:31:53;32.33;30.00;18.67
71794;PMS7003;59641;45.188;5.712;2024-02-28T07:34:19;32.33;30.00;20.00
71794;PMS7003;59641;45.188;5.712;2024-02-28T07:36:44;34.00;30.33;19.00
71794;PMS7003;59641;45.188;5.712;2024-02-28T07:39:09;34.00;30.33;21.33
71794;PMS7003;59641;45.188;5.712;2024-02-28T07:41:40;29.00;27.67;18.67
71794;PMS7003;59641;45.188;5.712;2024-02-28T07:44:06;31.33;28.00;16.33
71794;PMS7003;59641;45.188;5.712;2024-02-28T07:46:32;26.67;25.67;19.00
71794;PMS7003;59641;45.188;5.712;2024-02-28T07:48:58;34.67;25.33;15.00
71794;PMS7003;59641;45.188;5.712;2024-02-28T07:51:23;34.67;31.33;20.00
71794;PMS7003;59641;45.188;5.712;2024-02-28T07:53:48;32.00;30.00;20.00
71794;PMS7003;59641;45.188;5.712;2024-02-28T07:56:17;32.33;26.33;18.00
71794;PMS7003;59641;45.188;5.712;2024-02-28T07:58:46;34.67;29.33;19.00
71794;PMS7003;59641;45.188;5.712;2024-02-28T08:01:11;34.67;30.00;19.67
71794;PMS7003;59641;45.188;5.712;2024-02-28T08:03:37;41.33;30.00;19.67
71794;PMS7003;59641;45.188;5.712;2024-02-28T08:06:02;40.00;32.67;21.33
71794;PMS7003;59641;45.188;5.712;2024-02-28T08:08:28;38.67;33.67;20.00
71794;PMS7003;59641;45.188;5.712;2024-02-28T08:10:53;32.67;30.00;19.00
71794;PMS7003;59641;45.188;5.712;2024-02-28T08:13:19;26.67;25.67;16.33
71794;PMS7003;59641;45.188;5.712;2024-02-28T08:15:45;31.67;31.00;19.33
71794;PMS7003;59641;45.188;5.712;2024-02-28T08:18:10;34.33;30.00;18.33
71794;PMS7003;59641;45.188;5.712;2024-02-28T08:20:38;33.33;30.00;19.00
71794;PMS7003;59641;45.188;5.712;2024-02-28T08:23:04;35.00;31.33;20.67
71794;PMS7003;59641;45.188;5.712;2024-02-28T08:25:30;38.00;33.00;20.00
71794;PMS7003;59641;45.188;5.712;2024-02-28T08:27:55;32.67;31.00;18.67
71794;PMS7003;59641;45.188;5.712;2024-02-28T08:30:21;27.00;27.00;18.00
71794;PMS7003;59641;45.188;5.712;2024-02-28T08:32:47;26.67;26.33;16.00
71794;PMS7003;59641;45.188;5.712;2024-02-28T08:35:12;26.33;23.33;14.00
71794;PMS7003;59641;45.188;5.712;2024-02-28T08:37:40;32.00;28.67;19.67
71794;PMS7003;59641;45.188;5.712;2024-02-28T08:40:06;32.00;28.33;18.33
71794;PMS7003;59641;45.188;5.712;2024-02-28T08:42:32;26.33;25.00;17.33
71794;PMS7003;59641;45.188;5.712;2024-02-28T08:44:57;33.00;28.00;16.00
71794;PMS7003;59641;45.188;5.712;2024-02-28T08:47:25;27.00;24.33;16.33
71794;PMS7003;59641;45.188;5.712;2024-02-28T08:49:54;28.00;25.33;16.00
71794;PMS7003;59641;45.188;5.712;2024-02-28T08:52:20;28.67;25.67;15.67
71794;PMS7003;59641;45.188;5.712;2024-02-28T08:54:46;27.33;24.00;17.00
71794;PMS7003;59641;45.188;5.712;2024-02-28T08:57:12;30.67;26.00;18.00
71794;PMS7003;59641;45.188;5.712;2024-02-28T08:59:37;35.67;31.67;20.00
71794;PMS7003;59641;45.188;5.712;2024-02-28T09:02:03;25.67;23.00;15.67
71794;PMS7003;59641;45.188;5.712;2024-02-28T09:04:29;29.33;27.67;15.33
71794;PMS7003;59641;45.188;5.712;2024-02-28T09:06:54;33.33;27.00;17.33
71794;PMS7003;59641;45.188;5.712;2024-02-28T09:09:19;29.67;28.00;18.00
71794;PMS7003;59641;45.188;5.712;2024-02-28T09:11:45;31.00;26.67;18.00
71794;PMS7003;59641;45.188;5.712;2024-02-28T09:14:10;30.33;27.00;18.00
71794;PMS7003;59641;45.188;5.712;2024-02-28T09:16:35;20.67;16.67;7.00
71794;PMS7003;59641;45.188;5.712;2024-02-28T09:19:00;29.33;27.00;15.67
71794;PMS7003;59641;45.188;5.712;2024-02-28T09:21:27;30.67;28.00;18.00
71794;PMS7003;59641;45.188;5.712;2024-02-28T09:23:53;31.00;29.00;18.00
71794;PMS7003;59641;45.188;5.712;2024-02-28T09:26:18;35.00;30.67;19.33
71794;PMS7003;59641;45.188;5.712;2024-02-28T09:28:43;38.33;33.33;19.33
71794;PMS7003;59641;45.188;5.712;2024-02-28T09:31:09;33.67;30.33;20.00
71794;PMS7003;59641;45.188;5.712;2024-02-28T09:33:34;25.00;23.33;17.33
71794;PMS7003;59641;45.188;5.712;2024-02-28T09:36:01;25.33;23.33;17.00
71794;PMS7003;59641;45.188;5.712;2024-02-28T09:38:28;33.67;30.00;19.00
71794;PMS7003;59641;45.188;5.712;2024-02-28T09:40:54;28.00;26.33;17.00
71794;PMS7003;59641;45.188;5.712;2024-02-28T09:43:24;36.00;31.33;18.00
71794;PMS7003;59641;45.188;5.712;2024-02-28T09:45:59;37.00;30.33;19.00
71794;PMS7003;59641;45.188;5.712;2024-02-28T09:48:29;35.00;30.33;20.00
71794;PMS7003;59641;45.188;5.712;2024-02-28T09:50:55;33.33;28.67;19.67
71794;PMS7003;59641;45.188;5.712;2024-02-28T09:53:22;32.00;26.67;16.33
71794;PMS7003;59641;45.188;5.712;2024-02-28T09:55:48;29.33;27.67;19.33
71794;PMS7003;59641;45.188;5.712;2024-02-28T09:58:17;44.00;36.33;20.00
71794;PMS7003;59641;45.188;5.712;2024-02-28T10:00:43;20.33;17.33;7.00
71794;PMS7003;59641;45.188;5.712;2024-02-28T10:03:13;45.33;37.67;24.67
71794;PMS7003;59641;45.188;5.712;2024-02-28T10:05:41;38.67;35.00;22.00
71794;PMS7003;59641;45.188;5.712;2024-02-28T10:08:07;33.67;31.00;19.00
71794;PMS7003;59641;45.188;5.712;2024-02-28T10:10:36;41.00;33.33;20.00
71794;PMS7003;59641;45.188;5.712;2024-02-28T10:13:02;35.00;30.00;19.67
71794;PMS7003;59641;45.188;5.712;2024-02-28T10:15:28;38.67;30.00;20.00
71794;PMS7003;59641;45.188;5.712;2024-02-28T10:17:53;35.00;31.33;19.00
71794;PMS7003;59641;45.188;5.712;2024-02-28T10:20:18;32.67;31.00;20.00
71794;PMS7003;59641;45.188;5.712;2024-02-28T10:22:44;42.00;34.33;20.00
71794;PMS7003;59641;45.188;5.712;2024-02-28T10:25:10;38.33;35.33;22.00
71794;PMS7003;59641;45.188;5.712;2024-02-28T10:27:35;37.67;32.33;20.00
71794;PMS7003;59641;45.188;5.712;2024-02-28T10:30:01;29.67;25.33;17.00
71794;PMS7003;59641;45.188;5.712;2024-02-28T10:32:32;37.67;31.67;20.33
71794;PMS7003;59641;45.188;5.712;2024-02-28T10:35:02;34.33;32.00;20.00
71794;PMS7003;59641;45.188;5.712;2024-02-28T10:37:30;32.00;29.67;20.00
71794;PMS7003;59641;45.188;5.712;2024-02-28T10:39:57;36.33;30.33;19.67
71794;PMS7003;59641;45.188;5.712;2024-02-28T10:42:25;36.67;32.00;20.00
71794;PMS7003;59641;45.188;5.712;2024-02-28T10:44:52;46.00;35.67;22.00
71794;PMS7003;59641;45.188;5.712;2024-02-28T10:47:17;30.67;26.67;16.33
71794;PMS7003;59641;45.188;5.712;2024-02-28T10:49:43;34.33;31.33;20.00
71794;PMS7003;59641;45.188;5.712;2024-02-28T10:52:09;33.33;32.00;20.00
71794;PMS7003;59641;45.188;5.712;2024-02-28T10:54:38;40.00;34.33;22.00
71794;PMS7003;59641;45.188;5.712;2024-02-28T10:57:07;29.00;25.00;14.33
71794;PMS7003;59641;45.188;5.712;2024-02-28T10:59:33;39.33;32.00;20.00
71794;PMS7003;59641;45.188;5.712;2024-02-28T11:02:01;32.33;29.67;19.00
71794;PMS7003;59641;45.188;5.712;2024-02-28T11:04:28;33.33;27.67;16.67
71794;PMS7003;59641;45.188;5.712;2024-02-28T11:06:54;36.67;31.00;20.00
71794;PMS7003;59641;45.188;5.712;2024-02-28T11:09:21;39.67;32.33;21.33
71794;PMS7003;59641;45.188;5.712;2024-02-28T11:11:50;42.33;33.67;20.33
71794;PMS7003;59641;45.188;5.712;2024-02-28T11:14:16;34.00;29.33;18.33
71794;PMS7003;59641;45.188;5.712;2024-02-28T11:16:42;36.67;32.33;20.00
71794;PMS7003;59641;45.188;5.712;2024-02-28T11:19:18;31.67;30.33;18.33
71794;PMS7003;59641;45.188;5.712;2024-02-28T11:21:54;34.00;30.33;19.67
71794;PMS7003;59641;45.188;5.712;2024-02-28T11:24:28;36.67;30.33;21.33
71794;PMS7003;59641;45.188;5.712;2024-02-28T11:26:55;29.67;29.67;19.00
71794;PMS7003;59641;45.188;5.712;2024-02-28T11:29:27;35.67;30.33;18.00
71794;PMS7003;59641;45.188;5.712;2024-02-28T11:31:56;38.33;30.33;20.00
71794;PMS7003;59641;45.188;5.712;2024-02-28T11:34:21;36.00;31.67;20.00
71794;PMS7003;59641;45.188;5.712;2024-02-28T11:36:48;31.33;29.00;20.00
71794;PMS7003;59641;45.188;5.712;2024-02-28T11:39:14;32.00;28.33;18.00
71794;PMS7003;59641;45.188;5.712;2024-02-28T11:41:40;34.67;30.67;20.00
71794;PMS7003;59641;45.188;5.712;2024-02-28T11:44:05;35.33;30.67;19.67
71794;PMS7003;59641;45.188;5.712;2024-02-28T11:46:31;36.00;33.00;20.00
71794;PMS7003;59641;45.188;5.712;2024-02-28T11:48:57;38.67;32.00;22.00
71794;PMS7003;59641;45.188;5.712;2024-02-28T11:51:22;40.67;33.00;20.00
71794;PMS7003;59641;45.188;5.712;2024-02-28T11:53:48;30.67;30.00;20.00
71794;PMS7003;59641;45.188;5.712;2024-02-28T11:56:13;32.67;30.67;19.67
71794;PMS7003;59641;45.188;5.712;2024-02-28T11:58:54;40.00;33.00;20.00
71794;PMS7003;59641;45.188;5.712;2024-02-28T12:01:36;39.33;32.33;21.67
71794;PMS7003;59641;45.188;5.712;2024-02-28T12:04:06;32.33;31.00;20.00
71794;PMS7003;59641;45.188;5.712;2024-02-28T12:06:32;42.00;33.33;20.00
71794;PMS7003;59641;45.188;5.712;2024-02-28T12:08:59;39.00;32.00;20.00
71794;PMS7003;59641;45.188;5.712;2024-02-28T12:11:25;38.67;33.00;20.00
71794;PMS7003;59641;45.188;5.712;2024-02-28T12:13:53;37.33;31.00;19.33
71794;PMS7003;59641;45.188;5.712;2024-02-28T12:16:22;41.33;33.67;20.00
71794;PMS7003;59641;45.188;5.712;2024-02-28T12:18:51;35.00;30.33;20.00
71794;PMS7003;59641;45.188;5.712;2024-02-28T12:21:17;45.00;34.00;21.00
71794;PMS7003;59641;45.188;5.712;2024-02-28T12:23:42;38.00;32.67;20.00
71794;PMS7003;59641;45.188;5.712;2024-02-28T12:26:08;40.00;33.67;19.33
71794;PMS7003;59641;45.188;5.712;2024-02-28T12:28:33;44.00;35.33;22.33
71794;PMS7003;59641;45.188;5.712;2024-02-28T12:30:59;41.33;31.00;19.00
71794;PMS7003;59641;45.188;5.712;2024-02-28T12:33:24;37.67;30.33;20.00
71794;PMS7003;59641;45.188;5.712;2024-02-28T12:35:50;41.00;34.00;21.00
71794;PMS7003;59641;45.188;5.712;2024-02-28T12:38:16;26.67;24.33;8.00
71794;PMS7003;59641;45.188;5.712;2024-02-28T12:40:41;39.67;33.00;20.67
71794;PMS7003;59641;45.188;5.712;2024-02-28T12:43:07;39.33;34.67;21.67
71794;PMS7003;59641;45.188;5.712;2024-02-28T12:45:32;29.33;27.67;18.33
71794;PMS7003;59641;45.188;5.712;2024-02-28T12:47:58;36.67;30.00;17.67
71794;PMS7003;59641;45.188;5.712;2024-02-28T12:50:23;33.67;31.00;17.00
71794;PMS7003;59641;45.188;5.712;2024-02-28T12:52:49;31.00;29.67;17.67
71794;PMS7003;59641;45.188;5.712;2024-02-28T12:55:18;35.67;31.00;20.00
71794;PMS7003;59641;45.188;5.712;2024-02-28T12:57:44;31.67;27.67;16.00
71794;PMS7003;59641;45.188;5.712;2024-02-28T13:00:10;27.50;26.50;18.50
71794;PMS7003;59641;45.188;5.712;2024-02-28T13:02:36;35.33;30.67;18.67
71794;PMS7003;59641;45.188;5.712;2024-02-28T13:05:01;32.67;30.33;20.00
71794;PMS7003;59641;45.188;5.712;2024-02-28T13:07:26;36.00;31.67;20.00
71794;PMS7003;59641;45.188;5.712;2024-02-28T13:09:52;34.67;30.00;18.33
71794;PMS7003;59641;45.188;5.712;2024-02-28T13:12:18;30.00;29.00;17.00
71794;PMS7003;59641;45.188;5.712;2024-02-28T13:14:44;32.67;30.33;18.67
71794;PMS7003;59641;45.188;5.712;2024-02-28T13:17:10;31.33;29.67;17.67
71794;PMS7003;59641;45.188;5.712;2024-02-28T13:19:36;26.00;22.67;12.00
71794;PMS7003;59641;45.188;5.712;2024-02-28T13:22:01;34.00;31.67;18.00
71794;PMS7003;59641;45.188;5.712;2024-02-28T13:24:27;40.00;30.67;20.00
71794;PMS7003;59641;45.188;5.712;2024-02-28T13:26:52;29.33;26.33;18.33
71794;PMS7003;59641;45.188;5.712;2024-02-28T13:29:17;30.67;29.00;20.00
71794;PMS7003;59641;45.188;5.712;2024-02-28T13:31:42;29.00;26.00;15.33
71794;PMS7003;59641;45.188;5.712;2024-02-28T13:34:08;35.00;31.33;21.00
71794;PMS7003;59641;45.188;5.712;2024-02-28T13:36:33;43.00;32.67;20.00
71794;PMS7003;59641;45.188;5.712;2024-02-28T13:39:01;33.67;29.00;17.00
71794;PMS7003;59641;45.188;5.712;2024-02-28T13:41:27;39.00;34.33;20.33